createdAt,value
2023-02-11T00:03:30.142Z,-0.02
2023-02-11T00:13:34.928Z,-0.02
2023-02-11T00:23:40.981Z,-0.05
2023-02-11T00:33:47.315Z,-0.07
2023-02-11T00:43:53.891Z,-0.12
2023-02-11T00:53:59.763Z,-0.19
2023-02-11T01:04:05.893Z,-0.23
2023-02-11T01:14:11.776Z,-0.32
2023-02-11T01:24:18.765Z,-0.40
2023-02-11T01:34:25.298Z,-0.46
2023-02-11T01:44:34.557Z,-0.51
2023-02-11T01:55:01.370Z,-0.54
2023-02-11T02:05:16.014Z,-0.54
2023-02-11T02:15:25.207Z,-0.52
2023-02-11T02:26:03.945Z,-0.50
2023-02-11T02:36:23.789Z,-0.51
2023-02-11T02:46:32.029Z,-0.52
2023-02-11T02:56:46.455Z,-0.57
2023-02-11T03:06:59.061Z,-0.59
2023-02-11T03:17:08.275Z,-0.55
2023-02-11T03:27:21.919Z,-0.55
2023-02-11T03:37:34.281Z,-0.56
2023-02-11T03:47:43.804Z,-0.67
2023-02-11T03:57:50.061Z,-0.80
2023-02-11T04:07:56.055Z,-0.94
2023-02-11T04:18:03.455Z,-1.04
2023-02-11T04:28:09.456Z,-1.09
2023-02-11T04:38:15.674Z,-1.16
2023-02-11T04:48:21.479Z,-1.21
2023-02-11T04:58:27.294Z,-1.24
2023-02-11T05:08:33.806Z,-1.27
2023-02-11T05:18:42.095Z,-1.04
2023-02-11T05:28:48.226Z,-0.83
2023-02-11T05:38:54.235Z,-0.69
2023-02-11T05:49:00.194Z,-0.54
2023-02-11T05:59:06.019Z,-0.46
2023-02-11T06:09:12.679Z,-0.42
2023-02-11T06:19:18.582Z,-0.42
2023-02-11T06:29:24.497Z,-0.38
2023-02-11T06:39:30.787Z,-0.24
2023-02-11T06:49:35.380Z,-0.04
2023-02-11T06:59:41.283Z,0.05
2023-02-11T07:09:47.401Z,0.13
2023-02-11T07:19:53.379Z,0.21
2023-02-11T07:29:59.198Z,0.33
2023-02-11T07:40:05.476Z,0.37
2023-02-11T07:50:11.724Z,0.32
2023-02-11T08:00:21.129Z,0.25
2023-02-11T08:10:27.390Z,0.28
2023-02-11T08:20:33.477Z,0.21
2023-02-11T08:30:39.442Z,0.24
2023-02-11T08:40:45.376Z,0.33
2023-02-11T08:50:51.475Z,0.30
2023-02-11T09:00:57.476Z,0.21
2023-02-11T09:11:03.860Z,0.25
2023-02-11T09:21:11.515Z,0.35
2023-02-11T09:31:20.339Z,0.33
2023-02-11T09:41:57.199Z,0.34
2023-02-11T09:52:07.385Z,0.36
2023-02-11T10:02:25.445Z,0.40
2023-02-11T10:12:56.464Z,0.38
2023-02-11T10:23:09.895Z,0.41
2023-02-11T10:33:21.556Z,0.52
2023-02-11T10:43:32.102Z,0.62
2023-02-11T10:53:38.149Z,0.66
2023-02-11T11:03:52.215Z,0.74
2023-02-11T11:14:01.196Z,0.74
2023-02-11T11:24:15.758Z,0.74
2023-02-11T11:34:30.672Z,0.74
2023-02-11T11:44:38.328Z,0.74
2023-02-11T11:54:49.107Z,0.80
2023-02-11T12:05:09.117Z,0.94
2023-02-11T12:15:32.122Z,1.04
2023-02-11T12:25:44.905Z,1.19
2023-02-11T12:35:59.522Z,1.44
2023-02-11T12:46:44.597Z,1.64
2023-02-11T12:56:56.732Z,1.81
2023-02-11T13:07:10.780Z,1.90
2023-02-11T13:17:21.784Z,2.02
2023-02-11T13:27:38.820Z,2.08
2023-02-11T13:37:50.084Z,2.17
2023-02-11T13:48:01.065Z,2.20
2023-02-11T13:58:40.003Z,2.29
2023-02-11T14:09:09.037Z,2.31
2023-02-11T14:19:31.867Z,2.32
2023-02-11T14:29:43.125Z,2.37
2023-02-11T14:40:03.805Z,2.40
2023-02-11T14:50:20.497Z,2.40
2023-02-11T15:00:26.545Z,2.43
2023-02-11T15:10:36.472Z,2.42
2023-02-11T15:20:43.886Z,2.43
2023-02-11T15:30:57.845Z,2.46
2023-02-11T15:41:07.547Z,2.46
2023-02-11T15:51:22.189Z,2.46
2023-02-11T16:01:38.272Z,2.46
2023-02-11T16:11:58.224Z,2.45
2023-02-11T16:22:09.666Z,2.46
2023-02-11T16:32:20.967Z,2.49
2023-02-11T16:42:26.902Z,2.52
2023-02-11T16:52:37.556Z,2.53
2023-02-11T17:02:43.776Z,2.58
2023-02-11T17:12:50.442Z,2.63
2023-02-11T17:22:56.485Z,2.66
2023-02-11T17:33:02.494Z,2.70
2023-02-11T17:43:08.467Z,2.72
2023-02-11T17:53:14.895Z,2.75
2023-02-11T18:03:20.681Z,2.76
2023-02-11T18:13:26.780Z,2.77
2023-02-11T18:23:33.156Z,2.80
2023-02-11T18:33:40.086Z,2.81
2023-02-11T18:43:46.641Z,2.84
2023-02-11T18:53:52.657Z,2.87
2023-02-11T19:04:02.897Z,2.90
2023-02-11T19:14:10.406Z,2.95
2023-02-11T19:24:19.818Z,3.00
2023-02-11T19:34:26.208Z,3.07
2023-02-11T19:44:32.332Z,3.16
2023-02-11T19:54:38.739Z,3.25
2023-02-11T20:04:44.765Z,3.34
2023-02-11T20:14:50.764Z,3.43
2023-02-11T20:24:56.853Z,3.47
2023-02-11T20:35:02.660Z,3.49
2023-02-11T20:45:09.497Z,3.53
2023-02-11T20:55:15.513Z,3.55
2023-02-11T21:05:21.891Z,3.56
2023-02-11T21:15:28.091Z,3.58
2023-02-11T21:25:34.321Z,3.62
2023-02-11T21:35:40.584Z,3.64
2023-02-11T21:45:48.249Z,3.63
2023-02-11T21:56:07.946Z,3.64
2023-02-11T22:06:16.777Z,3.64
2023-02-11T22:16:27.872Z,3.61
2023-02-11T22:26:34.356Z,3.57
2023-02-11T22:36:45.254Z,3.49
2023-02-11T22:46:51.337Z,3.41
2023-02-11T22:56:57.209Z,3.35
2023-02-11T23:07:03.150Z,3.34
2023-02-11T23:17:09.161Z,3.30
2023-02-11T23:27:14.986Z,3.24
2023-02-11T23:37:21.055Z,3.16
2023-02-11T23:47:26.941Z,3.07
2023-02-11T23:57:34.386Z,3.00
